sensor_id;sensor_type;location;lat;lon;timestamp;P1;durP1;ratioP1;P2;durP2;ratioP2
21611;SDS011;47005;52.292;13.452;2023-06-14T00:01:41;5.28;;;1.98;;
21611;SDS011;47005;52.292;13.452;2023-06-14T00:04:10;4.07;;;1.83;;
21611;SDS011;47005;52.292;13.452;2023-06-14T00:06:36;5.68;;;2.03;;
21611;SDS011;47005;52.292;13.452;2023-06-14T00:09:03;3.08;;;1.80;;
21611;SDS011;47005;52.292;13.452;2023-06-14T00:11:30;3.17;;;1.90;;
21611;SDS011;47005;52.292;13.452;2023-06-14T00:13:56;3.40;;;1.80;;
21611;SDS011;47005;52.292;13.452;2023-06-14T00:16:25;3.90;;;2.40;;
21611;SDS011;47005;52.292;13.452;2023-06-14T00:18:50;5.50;;;2.45;;
21611;SDS011;47005;52.292;13.452;2023-06-14T00:21:19;3.10;;;2.00;;
21611;SDS011;47005;52.292;13.452;2023-06-14T00:23:44;5.22;;;1.77;;
21611;SDS011;47005;52.292;13.452;2023-06-14T00:26:10;4.95;;;2.20;;
21611;SDS011;47005;52.292;13.452;2023-06-14T00:28:36;7.03;;;2.55;;
21611;SDS011;47005;52.292;13.452;2023-06-14T00:31:02;3.55;;;1.90;;
21611;SDS011;47005;52.292;13.452;2023-06-14T00:33:27;4.85;;;2.55;;
21611;SDS011;47005;52.292;13.452;2023-06-14T00:35:53;3.10;;;2.15;;
21611;SDS011;47005;52.292;13.452;2023-06-14T00:38:19;4.20;;;2.22;;
21611;SDS011;47005;52.292;13.452;2023-06-14T00:40:46;2.78;;;2.00;;
21611;SDS011;47005;52.292;13.452;2023-06-14T00:43:12;5.18;;;2.83;;
21611;SDS011;47005;52.292;13.452;2023-06-14T00:45:37;4.65;;;2.42;;
21611;SDS011;47005;52.292;13.452;2023-06-14T00:48:03;3.58;;;2.13;;
21611;SDS011;47005;52.292;13.452;2023-06-14T00:50:31;4.35;;;2.50;;
21611;SDS011;47005;52.292;13.452;2023-06-14T00:52:58;4.82;;;2.38;;
21611;SDS011;47005;52.292;13.452;2023-06-14T00:55:24;3.15;;;2.03;;
21611;SDS011;47005;52.292;13.452;2023-06-14T00:57:50;4.75;;;2.33;;
21611;SDS011;47005;52.292;13.452;2023-06-14T01:00:16;5.53;;;2.50;;
21611;SDS011;47005;52.292;13.452;2023-06-14T01:02:42;4.57;;;2.38;;
21611;SDS011;47005;52.292;13.452;2023-06-14T01:05:07;5.22;;;2.60;;
21611;SDS011;47005;52.292;13.452;2023-06-14T01:13:12;5.18;;;3.03;;
21611;SDS011;47005;52.292;13.452;2023-06-14T01:15:45;5.00;;;2.15;;
21611;SDS011;47005;52.292;13.452;2023-06-14T01:18:12;6.07;;;2.38;;
21611;SDS011;47005;52.292;13.452;2023-06-14T01:20:44;4.90;;;2.28;;
21611;SDS011;47005;52.292;13.452;2023-06-14T01:23:14;5.55;;;1.85;;
21611;SDS011;47005;52.292;13.452;2023-06-14T01:25:43;4.25;;;2.10;;
21611;SDS011;47005;52.292;13.452;2023-06-14T01:28:09;3.55;;;2.63;;
21611;SDS011;47005;52.292;13.452;2023-06-14T01:30:38;6.40;;;2.78;;
21611;SDS011;47005;52.292;13.452;2023-06-14T01:33:09;5.72;;;2.47;;
21611;SDS011;47005;52.292;13.452;2023-06-14T01:35:43;3.28;;;2.17;;
21611;SDS011;47005;52.292;13.452;2023-06-14T01:38:10;5.75;;;2.42;;
21611;SDS011;47005;52.292;13.452;2023-06-14T01:40:38;3.45;;;2.00;;
21611;SDS011;47005;52.292;13.452;2023-06-14T01:43:04;3.65;;;2.22;;
21611;SDS011;47005;52.292;13.452;2023-06-14T01:45:31;5.07;;;2.50;;
21611;SDS011;47005;52.292;13.452;2023-06-14T01:47:59;4.47;;;2.60;;
21611;SDS011;47005;52.292;13.452;2023-06-14T01:50:28;4.28;;;2.65;;
21611;SDS011;47005;52.292;13.452;2023-06-14T01:52:55;5.32;;;2.33;;
21611;SDS011;47005;52.292;13.452;2023-06-14T01:55:20;4.28;;;2.50;;
21611;SDS011;47005;52.292;13.452;2023-06-14T01:57:46;4.78;;;2.38;;
21611;SDS011;47005;52.292;13.452;2023-06-14T02:00:13;4.25;;;2.25;;
21611;SDS011;47005;52.292;13.452;2023-06-14T02:02:39;3.70;;;2.40;;
21611;SDS011;47005;52.292;13.452;2023-06-14T02:05:06;5.07;;;2.47;;
21611;SDS011;47005;52.292;13.452;2023-06-14T02:07:32;3.80;;;2.45;;
21611;SDS011;47005;52.292;13.452;2023-06-14T02:09:58;6.50;;;3.08;;
21611;SDS011;47005;52.292;13.452;2023-06-14T02:12:24;4.85;;;2.35;;
21611;SDS011;47005;52.292;13.452;2023-06-14T02:14:50;4.20;;;2.75;;
21611;SDS011;47005;52.292;13.452;2023-06-14T02:17:16;4.53;;;3.03;;
21611;SDS011;47005;52.292;13.452;2023-06-14T02:19:42;5.15;;;2.75;;
21611;SDS011;47005;52.292;13.452;2023-06-14T02:22:08;4.43;;;2.77;;
21611;SDS011;47005;52.292;13.452;2023-06-14T02:24:33;6.75;;;3.42;;
21611;SDS011;47005;52.292;13.452;2023-06-14T02:27:00;6.70;;;2.60;;
21611;SDS011;47005;52.292;13.452;2023-06-14T02:29:26;4.70;;;3.10;;
21611;SDS011;47005;52.292;13.452;2023-06-14T02:31:52;5.07;;;2.77;;
21611;SDS011;47005;52.292;13.452;2023-06-14T02:34:18;4.72;;;2.47;;
21611;SDS011;47005;52.292;13.452;2023-06-14T02:36:45;6.00;;;2.63;;
21611;SDS011;47005;52.292;13.452;2023-06-14T02:39:11;5.90;;;2.67;;
21611;SDS011;47005;52.292;13.452;2023-06-14T02:41:37;5.75;;;3.25;;
21611;SDS011;47005;52.292;13.452;2023-06-14T02:44:03;7.77;;;3.20;;
21611;SDS011;47005;52.292;13.452;2023-06-14T02:46:28;4.60;;;2.87;;
21611;SDS011;47005;52.292;13.452;2023-06-14T02:48:54;4.47;;;2.73;;
21611;SDS011;47005;52.292;13.452;2023-06-14T02:51:20;6.07;;;3.00;;
21611;SDS011;47005;52.292;13.452;2023-06-14T02:53:45;4.03;;;2.70;;
21611;SDS011;47005;52.292;13.452;2023-06-14T02:56:11;5.67;;;3.37;;
21611;SDS011;47005;52.292;13.452;2023-06-14T02:58:37;4.63;;;2.80;;
21611;SDS011;47005;52.292;13.452;2023-06-14T03:01:04;5.90;;;3.10;;
21611;SDS011;47005;52.292;13.452;2023-06-14T03:03:30;5.63;;;2.90;;
21611;SDS011;47005;52.292;13.452;2023-06-14T03:05:56;4.00;;;3.10;;
21611;SDS011;47005;52.292;13.452;2023-06-14T03:08:29;7.03;;;3.50;;
21611;SDS011;47005;52.292;13.452;2023-06-14T03:10:56;7.40;;;3.37;;
21611;SDS011;47005;52.292;13.452;2023-06-14T03:13:22;5.37;;;3.17;;
21611;SDS011;47005;52.292;13.452;2023-06-14T03:15:48;4.53;;;3.47;;
21611;SDS011;47005;52.292;13.452;2023-06-14T03:18:17;6.78;;;3.83;;
21611;SDS011;47005;52.292;13.452;2023-06-14T03:20:42;9.10;;;3.93;;
21611;SDS011;47005;52.292;13.452;2023-06-14T03:23:10;5.07;;;3.63;;
21611;SDS011;47005;52.292;13.452;2023-06-14T03:25:37;6.03;;;3.67;;
21611;SDS011;47005;52.292;13.452;2023-06-14T03:28:04;5.77;;;3.70;;
21611;SDS011;47005;52.292;13.452;2023-06-14T03:30:30;5.93;;;3.00;;
21611;SDS011;47005;52.292;13.452;2023-06-14T03:32:56;7.73;;;3.10;;
21611;SDS011;47005;52.292;13.452;2023-06-14T03:35:22;6.00;;;3.30;;
21611;SDS011;47005;52.292;13.452;2023-06-14T03:37:49;4.90;;;3.73;;
21611;SDS011;47005;52.292;13.452;2023-06-14T03:40:16;7.40;;;4.17;;
21611;SDS011;47005;52.292;13.452;2023-06-14T03:42:43;5.23;;;3.30;;
21611;SDS011;47005;52.292;13.452;2023-06-14T03:45:09;5.45;;;3.10;;
21611;SDS011;47005;52.292;13.452;2023-06-14T03:47:35;6.35;;;3.92;;
21611;SDS011;47005;52.292;13.452;2023-06-14T03:50:02;5.78;;;3.72;;
21611;SDS011;47005;52.292;13.452;2023-06-14T03:52:28;5.00;;;3.55;;
21611;SDS011;47005;52.292;13.452;2023-06-14T03:54:54;5.32;;;3.72;;
21611;SDS011;47005;52.292;13.452;2023-06-14T03:57:20;6.63;;;3.92;;
21611;SDS011;47005;52.292;13.452;2023-06-14T03:59:46;6.50;;;3.45;;
21611;SDS011;47005;52.292;13.452;2023-06-14T04:02:12;6.83;;;3.40;;
21611;SDS011;47005;52.292;13.452;2023-06-14T04:04:41;6.68;;;3.88;;
21611;SDS011;47005;52.292;13.452;2023-06-14T04:07:12;6.78;;;4.10;;
21611;SDS011;47005;52.292;13.452;2023-06-14T04:09:38;9.75;;;4.47;;
21611;SDS011;47005;52.292;13.452;2023-06-14T04:12:05;7.57;;;3.78;;
21611;SDS011;47005;52.292;13.452;2023-06-14T04:14:31;6.75;;;4.25;;
21611;SDS011;47005;52.292;13.452;2023-06-14T04:16:58;7.88;;;4.25;;
21611;SDS011;47005;52.292;13.452;2023-06-14T04:19:23;6.70;;;4.68;;
21611;SDS011;47005;52.292;13.452;2023-06-14T04:21:49;6.47;;;4.03;;
21611;SDS011;47005;52.292;13.452;2023-06-14T04:24:15;11.27;;;4.47;;
21611;SDS011;47005;52.292;13.452;2023-06-14T04:26:44;7.18;;;3.92;;
21611;SDS011;47005;52.292;13.452;2023-06-14T04:29:10;10.50;;;4.57;;
21611;SDS011;47005;52.292;13.452;2023-06-14T04:31:41;7.30;;;4.07;;
21611;SDS011;47005;52.292;13.452;2023-06-14T04:34:07;7.95;;;4.45;;
21611;SDS011;47005;52.292;13.452;2023-06-14T04:36:33;9.88;;;4.40;;
21611;SDS011;47005;52.292;13.452;2023-06-14T04:39:02;9.18;;;4.03;;
21611;SDS011;47005;52.292;13.452;2023-06-14T04:41:29;5.75;;;4.07;;
21611;SDS011;47005;52.292;13.452;2023-06-14T04:43:55;5.57;;;3.92;;
21611;SDS011;47005;52.292;13.452;2023-06-14T04:46:26;11.15;;;4.35;;
21611;SDS011;47005;52.292;13.452;2023-06-14T04:48:53;6.25;;;4.35;;
21611;SDS011;47005;52.292;13.452;2023-06-14T04:51:20;7.32;;;4.18;;
21611;SDS011;47005;52.292;13.452;2023-06-14T04:53:55;8.85;;;4.28;;
21611;SDS011;47005;52.292;13.452;2023-06-14T04:56:23;7.72;;;4.35;;
21611;SDS011;47005;52.292;13.452;2023-06-14T04:58:50;7.07;;;4.63;;
21611;SDS011;47005;52.292;13.452;2023-06-14T05:01:17;7.95;;;4.10;;
21611;SDS011;47005;52.292;13.452;2023-06-14T05:03:43;6.03;;;3.95;;
21611;SDS011;47005;52.292;13.452;2023-06-14T05:06:10;7.03;;;4.25;;
21611;SDS011;47005;52.292;13.452;2023-06-14T05:08:36;7.95;;;5.18;;
21611;SDS011;47005;52.292;13.452;2023-06-14T05:11:02;5.97;;;4.53;;
21611;SDS011;47005;52.292;13.452;2023-06-14T05:13:28;6.90;;;4.10;;
21611;SDS011;47005;52.292;13.452;2023-06-14T05:15:53;11.10;;;5.85;;
21611;SDS011;47005;52.292;13.452;2023-06-14T05:18:19;7.55;;;5.53;;
21611;SDS011;47005;52.292;13.452;2023-06-14T05:20:45;8.77;;;4.90;;
21611;SDS011;47005;52.292;13.452;2023-06-14T05:23:11;6.60;;;4.70;;
21611;SDS011;47005;52.292;13.452;2023-06-14T05:25:41;9.98;;;5.00;;
21611;SDS011;47005;52.292;13.452;2023-06-14T05:28:08;5.80;;;4.22;;
21611;SDS011;47005;52.292;13.452;2023-06-14T05:30:34;7.72;;;5.25;;
21611;SDS011;47005;52.292;13.452;2023-06-14T05:33:00;8.48;;;5.95;;
21611;SDS011;47005;52.292;13.452;2023-06-14T05:35:26;6.85;;;4.63;;
21611;SDS011;47005;52.292;13.452;2023-06-14T05:37:52;7.88;;;4.10;;
21611;SDS011;47005;52.292;13.452;2023-06-14T05:40:18;8.07;;;4.88;;
21611;SDS011;47005;52.292;13.452;2023-06-14T05:42:45;6.75;;;4.43;;
21611;SDS011;47005;52.292;13.452;2023-06-14T05:45:11;6.75;;;5.10;;
21611;SDS011;47005;52.292;13.452;2023-06-14T05:47:37;7.65;;;4.30;;
21611;SDS011;47005;52.292;13.452;2023-06-14T05:50:02;9.25;;;4.75;;
21611;SDS011;47005;52.292;13.452;2023-06-14T05:52:28;9.25;;;5.22;;
21611;SDS011;47005;52.292;13.452;2023-06-14T05:54:54;7.05;;;4.63;;
21611;SDS011;47005;52.292;13.452;2023-06-14T05:57:20;8.95;;;4.95;;
21611;SDS011;47005;52.292;13.452;2023-06-14T05:59:46;6.35;;;4.00;;
21611;SDS011;47005;52.292;13.452;2023-06-14T06:02:11;7.22;;;4.93;;
21611;SDS011;47005;52.292;13.452;2023-06-14T06:04:37;7.88;;;4.78;;
21611;SDS011;47005;52.292;13.452;2023-06-14T06:07:03;8.43;;;4.90;;
21611;SDS011;47005;52.292;13.452;2023-06-14T06:09:30;7.57;;;4.65;;
21611;SDS011;47005;52.292;13.452;2023-06-14T06:11:56;7.25;;;4.65;;
21611;SDS011;47005;52.292;13.452;2023-06-14T06:14:21;6.75;;;4.78;;
21611;SDS011;47005;52.292;13.452;2023-06-14T06:16:47;10.63;;;5.30;;
21611;SDS011;47005;52.292;13.452;2023-06-14T06:19:13;7.07;;;4.90;;
21611;SDS011;47005;52.292;13.452;2023-06-14T06:21:38;8.27;;;5.60;;
21611;SDS011;47005;52.292;13.452;2023-06-14T06:24:04;7.40;;;5.25;;
21611;SDS011;47005;52.292;13.452;2023-06-14T06:26:31;6.28;;;4.63;;
21611;SDS011;47005;52.292;13.452;2023-06-14T06:28:57;5.40;;;4.20;;
21611;SDS011;47005;52.292;13.452;2023-06-14T06:31:23;7.53;;;5.18;;
21611;SDS011;47005;52.292;13.452;2023-06-14T06:33:49;6.90;;;4.40;;
21611;SDS011;47005;52.292;13.452;2023-06-14T06:36:15;7.18;;;4.95;;
21611;SDS011;47005;52.292;13.452;2023-06-14T06:38:41;7.35;;;5.15;;
21611;SDS011;47005;52.292;13.452;2023-06-14T06:41:07;6.07;;;3.92;;
21611;SDS011;47005;52.292;13.452;2023-06-14T06:43:32;8.88;;;4.88;;
21611;SDS011;47005;52.292;13.452;2023-06-14T06:45:58;7.10;;;4.32;;
21611;SDS011;47005;52.292;13.452;2023-06-14T06:48:24;9.32;;;4.35;;
21611;SDS011;47005;52.292;13.452;2023-06-14T06:50:49;9.48;;;4.72;;
21611;SDS011;47005;52.292;13.452;2023-06-14T06:53:16;6.47;;;4.63;;
21611;SDS011;47005;52.292;13.452;2023-06-14T06:55:43;5.43;;;3.55;;
21611;SDS011;47005;52.292;13.452;2023-06-14T06:58:09;7.18;;;4.25;;
21611;SDS011;47005;52.292;13.452;2023-06-14T07:00:35;8.23;;;4.55;;
21611;SDS011;47005;52.292;13.452;2023-06-14T07:03:01;9.30;;;5.07;;
21611;SDS011;47005;52.292;13.452;2023-06-14T07:05:28;8.25;;;4.50;;
21611;SDS011;47005;52.292;13.452;2023-06-14T07:07:54;10.43;;;5.28;;
21611;SDS011;47005;52.292;13.452;2023-06-14T07:10:21;6.78;;;4.40;;
21611;SDS011;47005;52.292;13.452;2023-06-14T07:12:47;7.22;;;5.57;;
21611;SDS011;47005;52.292;13.452;2023-06-14T07:15:13;8.38;;;4.63;;
21611;SDS011;47005;52.292;13.452;2023-06-14T07:17:38;9.10;;;5.05;;
21611;SDS011;47005;52.292;13.452;2023-06-14T07:20:05;7.93;;;4.93;;
21611;SDS011;47005;52.292;13.452;2023-06-14T07:22:41;11.05;;;4.63;;
21611;SDS011;47005;52.292;13.452;2023-06-14T07:25:10;5.95;;;4.63;;
21611;SDS011;47005;52.292;13.452;2023-06-14T07:27:40;6.82;;;4.68;;
21611;SDS011;47005;52.292;13.452;2023-06-14T07:30:07;8.45;;;4.60;;
21611;SDS011;47005;52.292;13.452;2023-06-14T07:32:33;11.55;;;4.95;;
21611;SDS011;47005;52.292;13.452;2023-06-14T07:34:59;6.30;;;4.13;;
21611;SDS011;47005;52.292;13.452;2023-06-14T07:37:25;5.47;;;3.83;;
21611;SDS011;47005;52.292;13.452;2023-06-14T07:39:50;8.73;;;3.67;;
21611;SDS011;47005;52.292;13.452;2023-06-14T07:42:16;10.00;;;3.95;;
21611;SDS011;47005;52.292;13.452;2023-06-14T07:44:42;8.85;;;4.80;;
21611;SDS011;47005;52.292;13.452;2023-06-14T07:47:07;6.60;;;4.50;;
21611;SDS011;47005;52.292;13.452;2023-06-14T07:49:33;6.40;;;3.88;;
21611;SDS011;47005;52.292;13.452;2023-06-14T07:51:59;13.25;;;4.00;;
21611;SDS011;47005;52.292;13.452;2023-06-14T07:54:24;6.40;;;3.42;;
21611;SDS011;47005;52.292;13.452;2023-06-14T07:56:51;6.05;;;3.92;;
21611;SDS011;47005;52.292;13.452;2023-06-14T07:59:17;13.45;;;4.75;;
21611;SDS011;47005;52.292;13.452;2023-06-14T08:01:43;7.20;;;3.78;;
21611;SDS011;47005;52.292;13.452;2023-06-14T08:04:16;6.35;;;3.90;;
21611;SDS011;47005;52.292;13.452;2023-06-14T08:06:42;7.05;;;3.85;;
21611;SDS011;47005;52.292;13.452;2023-06-14T08:09:11;5.63;;;3.90;;
21611;SDS011;47005;52.292;13.452;2023-06-14T08:11:37;11.40;;;4.07;;
21611;SDS011;47005;52.292;13.452;2023-06-14T08:14:03;6.30;;;3.25;;
21611;SDS011;47005;52.292;13.452;2023-06-14T08:16:29;8.50;;;3.60;;
21611;SDS011;47005;52.292;13.452;2023-06-14T08:18:55;4.85;;;3.22;;
21611;SDS011;47005;52.292;13.452;2023-06-14T08:21:21;7.03;;;3.50;;
21611;SDS011;47005;52.292;13.452;2023-06-14T08:23:46;7.47;;;4.22;;
21611;SDS011;47005;52.292;13.452;2023-06-14T08:26:12;4.88;;;3.47;;
21611;SDS011;47005;52.292;13.452;2023-06-14T08:28:38;4.97;;;3.33;;
21611;SDS011;47005;52.292;13.452;2023-06-14T08:31:03;8.38;;;3.75;;
21611;SDS011;47005;52.292;13.452;2023-06-14T08:33:30;4.68;;;2.80;;
21611;SDS011;47005;52.292;13.452;2023-06-14T08:35:58;7.47;;;3.03;;
21611;SDS011;47005;52.292;13.452;2023-06-14T08:38:24;5.10;;;3.15;;
21611;SDS011;47005;52.292;13.452;2023-06-14T08:40:50;4.20;;;2.97;;
21611;SDS011;47005;52.292;13.452;2023-06-14T08:43:17;5.10;;;3.15;;
21611;SDS011;47005;52.292;13.452;2023-06-14T08:45:43;5.50;;;2.88;;
21611;SDS011;47005;52.292;13.452;2023-06-14T08:48:13;7.07;;;3.13;;
21611;SDS011;47005;52.292;13.452;2023-06-14T08:50:45;5.93;;;2.80;;
21611;SDS011;47005;52.292;13.452;2023-06-14T08:53:13;4.18;;;2.97;;
21611;SDS011;47005;52.292;13.452;2023-06-14T08:55:45;4.47;;;2.75;;
21611;SDS011;47005;52.292;13.452;2023-06-14T08:58:12;4.38;;;2.90;;
21611;SDS011;47005;52.292;13.452;2023-06-14T09:00:39;4.47;;;2.90;;
21611;SDS011;47005;52.292;13.452;2023-06-14T09:03:06;5.50;;;2.70;;
21611;SDS011;47005;52.292;13.452;2023-06-14T09:05:38;5.82;;;3.10;;
21611;SDS011;47005;52.292;13.452;2023-06-14T09:08:03;4.18;;;2.67;;
21611;SDS011;47005;52.292;13.452;2023-06-14T09:10:30;5.07;;;2.60;;
21611;SDS011;47005;52.292;13.452;2023-06-14T09:13:02;4.05;;;2.67;;
21611;SDS011;47005;52.292;13.452;2023-06-14T09:15:29;5.45;;;2.80;;
21611;SDS011;47005;52.292;13.452;2023-06-14T09:17:55;4.70;;;3.05;;
21611;SDS011;47005;52.292;13.452;2023-06-14T09:20:21;4.90;;;2.72;;
21611;SDS011;47005;52.292;13.452;2023-06-14T09:22:49;5.18;;;3.17;;
21611;SDS011;47005;52.292;13.452;2023-06-14T09:25:14;5.35;;;2.90;;
21611;SDS011;47005;52.292;13.452;2023-06-14T09:27:40;4.30;;;3.17;;
21611;SDS011;47005;52.292;13.452;2023-06-14T09:30:08;3.97;;;2.28;;
21611;SDS011;47005;52.292;13.452;2023-06-14T09:32:38;6.80;;;2.92;;
21611;SDS011;47005;52.292;13.452;2023-06-14T09:35:05;9.07;;;2.47;;
21611;SDS011;47005;52.292;13.452;2023-06-14T09:37:32;7.75;;;2.97;;
21611;SDS011;47005;52.292;13.452;2023-06-14T09:39:59;5.13;;;2.83;;
21611;SDS011;47005;52.292;13.452;2023-06-14T09:42:25;5.00;;;2.90;;
21611;SDS011;47005;52.292;13.452;2023-06-14T09:44:51;7.28;;;3.08;;
21611;SDS011;47005;52.292;13.452;2023-06-14T09:47:18;6.32;;;2.53;;
21611;SDS011;47005;52.292;13.452;2023-06-14T09:49:44;5.13;;;3.13;;
21611;SDS011;47005;52.292;13.452;2023-06-14T09:52:10;4.95;;;2.97;;
21611;SDS011;47005;52.292;13.452;2023-06-14T09:54:40;3.80;;;2.60;;
21611;SDS011;47005;52.292;13.452;2023-06-14T09:57:09;4.60;;;2.80;;
21611;SDS011;47005;52.292;13.452;2023-06-14T09:59:36;4.82;;;2.67;;
21611;SDS011;47005;52.292;13.452;2023-06-14T10:02:25;7.57;;;2.85;;
21611;SDS011;47005;52.292;13.452;2023-06-14T10:05:15;7.10;;;2.97;;
21611;SDS011;47005;52.292;13.452;2023-06-14T10:07:53;4.10;;;2.58;;
21611;SDS011;47005;52.292;13.452;2023-06-14T10:10:26;6.30;;;2.85;;
21611;SDS011;47005;52.292;13.452;2023-06-14T10:12:52;3.60;;;2.45;;
21611;SDS011;47005;52.292;13.452;2023-06-14T10:16:03;5.68;;;3.50;;
21611;SDS011;47005;52.292;13.452;2023-06-14T10:18:10;4.32;;;2.88;;
21611;SDS011;47005;52.292;13.452;2023-06-14T10:21:08;4.05;;;2.67;;
21611;SDS011;47005;52.292;13.452;2023-06-14T10:23:48;4.03;;;2.75;;
21611;SDS011;47005;52.292;13.452;2023-06-14T10:26:19;6.68;;;2.95;;
21611;SDS011;47005;52.292;13.452;2023-06-14T10:28:55;6.13;;;3.22;;
21611;SDS011;47005;52.292;13.452;2023-06-14T10:31:39;6.75;;;2.47;;
21611;SDS011;47005;52.292;13.452;2023-06-14T10:34:24;3.55;;;2.30;;
21611;SDS011;47005;52.292;13.452;2023-06-14T10:39:45;7.07;;;3.67;;
21611;SDS011;47005;52.292;13.452;2023-06-14T10:42:12;3.88;;;2.38;;
21611;SDS011;47005;52.292;13.452;2023-06-14T10:47:13;6.25;;;2.88;;
21611;SDS011;47005;52.292;13.452;2023-06-14T10:50:10;6.18;;;2.75;;
21611;SDS011;47005;52.292;13.452;2023-06-14T10:52:40;4.10;;;2.38;;
21611;SDS011;47005;52.292;13.452;2023-06-14T10:55:08;6.03;;;2.35;;
21611;SDS011;47005;52.292;13.452;2023-06-14T10:57:36;6.13;;;2.25;;
21611;SDS011;47005;52.292;13.452;2023-06-14T11:00:07;3.67;;;2.40;;
21611;SDS011;47005;52.292;13.452;2023-06-14T11:05:41;4.20;;;2.45;;
21611;SDS011;47005;52.292;13.452;2023-06-14T11:08:30;5.47;;;2.78;;
21611;SDS011;47005;52.292;13.452;2023-06-14T11:11:01;4.88;;;2.65;;
21611;SDS011;47005;52.292;13.452;2023-06-14T11:13:30;3.78;;;2.40;;
21611;SDS011;47005;52.292;13.452;2023-06-14T11:15:56;3.67;;;2.67;;
21611;SDS011;47005;52.292;13.452;2023-06-14T11:18:23;3.85;;;2.70;;
21611;SDS011;47005;52.292;13.452;2023-06-14T11:20:49;6.57;;;3.45;;
21611;SDS011;47005;52.292;13.452;2023-06-14T11:23:15;3.55;;;2.30;;
21611;SDS011;47005;52.292;13.452;2023-06-14T11:25:41;4.57;;;2.10;;
21611;SDS011;47005;52.292;13.452;2023-06-14T11:28:07;5.80;;;2.55;;
21611;SDS011;47005;52.292;13.452;2023-06-14T11:30:33;6.32;;;3.08;;
21611;SDS011;47005;52.292;13.452;2023-06-14T11:32:58;4.40;;;2.90;;
21611;SDS011;47005;52.292;13.452;2023-06-14T11:35:24;5.90;;;3.17;;
21611;SDS011;47005;52.292;13.452;2023-06-14T11:37:54;5.93;;;2.90;;
21611;SDS011;47005;52.292;13.452;2023-06-14T11:40:23;4.32;;;2.63;;
21611;SDS011;47005;52.292;13.452;2023-06-14T11:42:49;3.85;;;2.20;;
21611;SDS011;47005;52.292;13.452;2023-06-14T11:45:22;3.03;;;2.08;;
21611;SDS011;47005;52.292;13.452;2023-06-14T11:47:48;5.28;;;3.03;;
21611;SDS011;47005;52.292;13.452;2023-06-14T11:50:13;3.17;;;2.30;;
21611;SDS011;47005;52.292;13.452;2023-06-14T11:52:39;5.45;;;2.50;;
21611;SDS011;47005;52.292;13.452;2023-06-14T11:55:05;3.95;;;2.28;;
21611;SDS011;47005;52.292;13.452;2023-06-14T11:57:34;4.50;;;2.60;;
21611;SDS011;47005;52.292;13.452;2023-06-14T12:00:04;5.95;;;2.30;;
21611;SDS011;47005;52.292;13.452;2023-06-14T12:02:38;8.00;;;3.17;;
21611;SDS011;47005;52.292;13.452;2023-06-14T12:05:05;7.72;;;2.58;;
21611;SDS011;47005;52.292;13.452;2023-06-14T12:07:38;4.32;;;2.80;;
21611;SDS011;47005;52.292;13.452;2023-06-14T12:10:07;3.40;;;2.30;;
21611;SDS011;47005;52.292;13.452;2023-06-14T12:12:35;6.80;;;3.15;;
21611;SDS011;47005;52.292;13.452;2023-06-14T12:15:03;5.65;;;2.42;;
21611;SDS011;47005;52.292;13.452;2023-06-14T12:17:33;4.93;;;3.00;;
21611;SDS011;47005;52.292;13.452;2023-06-14T12:20:04;4.05;;;2.78;;
21611;SDS011;47005;52.292;13.452;2023-06-14T12:22:36;4.38;;;2.70;;
21611;SDS011;47005;52.292;13.452;2023-06-14T12:25:03;4.57;;;2.65;;
21611;SDS011;47005;52.292;13.452;2023-06-14T12:27:29;8.05;;;2.83;;
21611;SDS011;47005;52.292;13.452;2023-06-14T12:29:59;8.40;;;3.00;;
21611;SDS011;47005;52.292;13.452;2023-06-14T12:32:29;6.13;;;2.90;;
21611;SDS011;47005;52.292;13.452;2023-06-14T12:34:55;4.28;;;2.72;;
21611;SDS011;47005;52.292;13.452;2023-06-14T12:37:21;5.97;;;2.35;;
21611;SDS011;47005;52.292;13.452;2023-06-14T12:39:47;8.52;;;2.58;;
21611;SDS011;47005;52.292;13.452;2023-06-14T12:42:12;4.78;;;2.80;;
21611;SDS011;47005;52.292;13.452;2023-06-14T12:44:39;5.07;;;2.28;;
21611;SDS011;47005;52.292;13.452;2023-06-14T12:47:06;4.18;;;2.33;;
21611;SDS011;47005;52.292;13.452;2023-06-14T12:49:32;6.88;;;2.97;;
21611;SDS011;47005;52.292;13.452;2023-06-14T12:51:58;5.22;;;2.90;;
21611;SDS011;47005;52.292;13.452;2023-06-14T12:54:23;4.15;;;2.45;;
21611;SDS011;47005;52.292;13.452;2023-06-14T12:56:51;8.40;;;3.28;;
21611;SDS011;47005;52.292;13.452;2023-06-14T12:59:17;3.75;;;2.50;;
21611;SDS011;47005;52.292;13.452;2023-06-14T13:01:43;5.45;;;3.20;;
21611;SDS011;47005;52.292;13.452;2023-06-14T13:04:09;3.72;;;2.17;;
21611;SDS011;47005;52.292;13.452;2023-06-14T13:06:35;4.28;;;2.30;;
21611;SDS011;47005;52.292;13.452;2023-06-14T13:09:01;5.43;;;2.78;;
21611;SDS011;47005;52.292;13.452;2023-06-14T13:11:28;8.18;;;3.20;;
21611;SDS011;47005;52.292;13.452;2023-06-14T13:13:55;7.57;;;3.17;;
21611;SDS011;47005;52.292;13.452;2023-06-14T13:16:20;4.20;;;2.97;;
21611;SDS011;47005;52.292;13.452;2023-06-14T13:18:46;6.20;;;3.03;;
21611;SDS011;47005;52.292;13.452;2023-06-14T13:21:12;5.15;;;3.25;;
21611;SDS011;47005;52.292;13.452;2023-06-14T13:23:38;5.95;;;2.35;;
21611;SDS011;47005;52.292;13.452;2023-06-14T13:26:03;7.18;;;3.13;;
21611;SDS011;47005;52.292;13.452;2023-06-14T13:28:29;5.45;;;2.88;;
21611;SDS011;47005;52.292;13.452;2023-06-14T13:30:56;6.03;;;3.13;;
21611;SDS011;47005;52.292;13.452;2023-06-14T13:33:22;4.53;;;2.80;;
21611;SDS011;47005;52.292;13.452;2023-06-14T13:35:49;15.75;;;3.47;;
21611;SDS011;47005;52.292;13.452;2023-06-14T13:38:17;7.68;;;2.75;;
21611;SDS011;47005;52.292;13.452;2023-06-14T13:40:43;4.45;;;3.03;;
21611;SDS011;47005;52.292;13.452;2023-06-14T13:43:09;3.88;;;2.38;;
21611;SDS011;47005;52.292;13.452;2023-06-14T13:45:35;6.22;;;2.78;;
21611;SDS011;47005;52.292;13.452;2023-06-14T13:48:01;4.68;;;2.78;;
21611;SDS011;47005;52.292;13.452;2023-06-14T13:50:27;7.32;;;3.78;;
21611;SDS011;47005;52.292;13.452;2023-06-14T13:52:52;6.18;;;3.15;;
21611;SDS011;47005;52.292;13.452;2023-06-14T13:55:18;5.43;;;2.90;;
21611;SDS011;47005;52.292;13.452;2023-06-14T13:57:44;4.78;;;2.83;;
21611;SDS011;47005;52.292;13.452;2023-06-14T14:00:10;5.90;;;3.08;;
21611;SDS011;47005;52.292;13.452;2023-06-14T14:02:36;8.13;;;2.92;;
21611;SDS011;47005;52.292;13.452;2023-06-14T14:05:02;7.45;;;3.10;;
21611;SDS011;47005;52.292;13.452;2023-06-14T14:07:28;5.10;;;2.92;;
21611;SDS011;47005;52.292;13.452;2023-06-14T14:09:54;10.27;;;3.25;;
21611;SDS011;47005;52.292;13.452;2023-06-14T14:12:22;6.93;;;2.72;;
21611;SDS011;47005;52.292;13.452;2023-06-14T14:14:48;6.80;;;2.67;;
21611;SDS011;47005;52.292;13.452;2023-06-14T14:17:14;6.05;;;2.95;;
21611;SDS011;47005;52.292;13.452;2023-06-14T14:19:39;5.47;;;2.83;;
21611;SDS011;47005;52.292;13.452;2023-06-14T14:22:05;6.32;;;3.40;;
21611;SDS011;47005;52.292;13.452;2023-06-14T14:24:31;5.55;;;3.15;;
21611;SDS011;47005;52.292;13.452;2023-06-14T14:26:56;6.68;;;2.50;;
21611;SDS011;47005;52.292;13.452;2023-06-14T14:29:25;4.28;;;2.60;;
21611;SDS011;47005;52.292;13.452;2023-06-14T14:31:53;3.45;;;2.45;;
21611;SDS011;47005;52.292;13.452;2023-06-14T14:34:21;4.72;;;2.67;;
21611;SDS011;47005;52.292;13.452;2023-06-14T14:36:47;5.72;;;3.00;;
21611;SDS011;47005;52.292;13.452;2023-06-14T14:39:13;6.05;;;2.80;;
21611;SDS011;47005;52.292;13.452;2023-06-14T14:41:38;4.53;;;2.58;;
21611;SDS011;47005;52.292;13.452;2023-06-14T14:44:05;6.10;;;2.45;;
21611;SDS011;47005;52.292;13.452;2023-06-14T14:46:31;6.30;;;2.65;;
21611;SDS011;47005;52.292;13.452;2023-06-14T14:48:56;6.43;;;2.85;;